Cleveland, OH (44105)

11:21 PM EST on November 27, 2014 (GMT -0500)
Buckeye Woodhill | Change Station
CLOSE
Current Station
Personal Weather Station
Location: Cleveland, OH
Elevation: 776 ft
Nearby Weather Stations

Elev 776 ft 41.48 °N, 81.62 °W | Updated 57 seconds ago

Snow
Snow
29.7 °F
Feels Like 24 °F
N
5.4
Wind Variable Wind from WNW
Gusts 7.0 mph

Today
High -- | Low -- °F
--% Chance of Precip.
Yesterday
High -- | Low -- °F
Precip. -- in
7:29 AM 4:59 PM
Waxing Crescent, 36% visible
Pressure 30.27 in
Visibility 10.0 miles
Clouds Scattered Clouds 2500 ft
Mostly Cloudy 3500 ft
Overcast 4400 ft
Windchill 24 °F
Dew Point 23 °F
Humidity 75%
Rainfall 0.00 in
Snow Depth Not available.
UV 0 out of 12
Pollen .10 out of 12
Air Quality Not available.
Flu Activity Not available.
METAR KBKL 280353Z 33018G24KT 10SM SCT025 BKN035 OVC044 00/M05 A3024 RMK AO2 SNE08 SLP248 P0000 T00001050

More Conditions Fewer Conditions

Pressure 30.27 in
Visibility 10.0 miles
Clouds Scattered Clouds 2500 ft
Mostly Cloudy 3500 ft
Overcast 4400 ft
Windchill 24 °F
Dew Point 23 °F
Humidity 75%
Rainfall 0.00 in
Snow Depth Not available.
UV 0 out of 12
Pollen .10 out of 12
Air Quality Not available.
Flu Activity Not available.
METAR KBKL 280353Z 33018G24KT 10SM SCT025 BKN035 OVC044 00/M05 A3024 RMK AO2 SNE08 SLP248 P0000 T00001050

More Conditions Fewer Conditions

10-Day Weather Forecast

Almanac

Astronomy

Nov. 27, 2014 Rise Set
Actual Time
Civil Twilight
Nautical Twilight
Astronomical Twilight
Moon
Length of Visible Light
Length of Day
Tomorrow will be .
, % of the Moon is Illuminated

Today's Extremes

State Highs State Lows

Community

WunderPhotos

Upload Photos

1,774,180 photos uploaded!

WunderBlogs® & News

Nearby

Air Quality

  Air Quality AQ Index Pollutant
Not available.

Snow Depth

Station Depth Elevation

Earthquake Activity

City Distance Mag. Time & Date
Minimum magnitude displayed is 2.5.

Coastal Water Temperatures

Place Temperature

Nearby Weather Stations